Time;durP1;ratioP1;P1;durP2;ratioP2;P2;SDS_P1;SDS_P2;PMS_P1;PMS_P2;Temp;Humidity;BMP_temperature;BMP_pressure;BME280_temperature;BME280_humidity;BME280_pressure;Samples;Min_cycle;Max_cycle;Signal;HPM_P1;HPM_P2
2023/06/04 00:02:12;;;;;;;0.17;0.10;;;11.10;99.90;;;;;;5035631;28;20044;-67
2023/06/04 00:04:38;;;;;;;1.75;0.40;;;11.10;99.90;;;;;;5034533;28;20070;-67
2023/06/04 00:07:04;;;;;;;0.22;0.22;;;11.00;99.90;;;;;;5043390;28;20037;-67
2023/06/04 00:09:29;;;;;;;0.00;0.00;;;11.00;99.90;;;;;;5039605;28;20115;-67
2023/06/04 00:11:55;;;;;;;0.10;0.10;;;10.90;99.90;;;;;;5039333;28;21570;-67
2023/06/04 00:14:21;;;;;;;0.00;0.00;;;10.90;99.90;;;;;;5042287;28;20095;-67
2023/06/04 00:16:47;;;;;;;0.52;0.10;;;10.90;99.90;;;;;;5038686;28;20100;-67
2023/06/04 00:19:12;;;;;;;0.20;0.20;;;10.90;99.90;;;;;;5075795;28;20033;-66
2023/06/04 00:21:38;;;;;;;0.08;0.08;;;10.80;99.90;;;;;;5041211;28;20045;-67
2023/06/04 00:24:04;;;;;;;1.13;1.00;;;10.80;99.90;;;;;;5039123;28;20059;-66
2023/06/04 00:26:29;;;;;;;0.00;0.00;;;10.80;99.90;;;;;;5032742;28;20079;-66
2023/06/04 00:28:55;;;;;;;0.65;0.10;;;10.80;99.90;;;;;;5036166;28;20471;-67
2023/06/04 00:31:21;;;;;;;0.13;0.13;;;10.80;99.90;;;;;;5072107;28;20029;-67
2023/06/04 00:33:50;;;;;;;0.00;0.00;;;10.80;99.90;;;;;;5038969;28;20065;-67
2023/06/04 00:36:16;;;;;;;0.00;0.00;;;10.80;99.90;;;;;;5036365;28;22160;-67
2023/06/04 00:38:41;;;;;;;0.10;0.10;;;10.70;99.90;;;;;;5037001;28;20072;-67
2023/06/04 00:41:07;;;;;;;0.05;0.05;;;10.70;99.90;;;;;;5070636;28;20029;-67
2023/06/04 00:43:33;;;;;;;0.10;0.00;;;10.70;99.90;;;;;;5072295;28;20090;-67
2023/06/04 00:46:00;;;;;;;0.03;0.03;;;10.60;99.90;;;;;;5034179;28;20037;-67
2023/06/04 00:48:27;;;;;;;0.00;0.00;;;10.60;99.90;;;;;;5036520;28;20668;-67
2023/06/04 00:50:53;;;;;;;0.00;0.00;;;10.60;99.90;;;;;;5041364;28;20056;-66
2023/06/04 00:53:20;;;;;;;0.10;0.10;;;10.60;99.90;;;;;;5037645;28;20119;-67
2023/06/04 00:55:46;;;;;;;0.00;0.00;;;10.50;99.90;;;;;;5052416;28;20118;-67
2023/06/04 00:58:12;;;;;;;0.20;0.08;;;10.50;99.90;;;;;;5042117;28;20044;-66
2023/06/04 01:00:38;;;;;;;0.10;0.10;;;10.50;99.90;;;;;;5066373;28;20037;-67
2023/06/04 01:03:10;;;;;;;0.00;0.00;;;10.50;99.90;;;;;;5066935;28;20053;-67
2023/06/04 01:05:51;;;;;;;0.10;0.10;;;10.50;99.90;;;;;;5069380;28;20397;-67
2023/06/04 01:08:18;;;;;;;0.10;0.10;;;10.50;99.90;;;;;;5039478;28;20108;-67
2023/06/04 01:10:51;;;;;;;0.10;0.10;;;10.50;99.90;;;;;;5074169;28;20053;-67
2023/06/04 01:13:16;;;;;;;0.10;0.10;;;10.50;99.90;;;;;;5042380;28;20032;-67
2023/06/04 01:15:42;;;;;;;1.08;0.50;;;10.50;99.90;;;;;;5072683;28;20047;-67
2023/06/04 01:18:08;;;;;;;1.08;0.80;;;10.40;99.90;;;;;;5044389;28;20135;-67
2023/06/04 01:20:39;;;;;;;0.13;0.13;;;10.40;99.90;;;;;;5044057;28;20131;-66
2023/06/04 01:23:33;;;;;;;0.03;0.03;;;10.40;99.90;;;;;;5074697;28;20102;-67
2023/06/04 01:26:04;;;;;;;0.00;0.00;;;10.40;99.90;;;;;;5074880;28;20032;-67
2023/06/04 01:28:32;;;;;;;0.52;0.10;;;10.40;99.90;;;;;;5039582;28;20116;-66
2023/06/04 01:30:59;;;;;;;0.80;0.80;;;10.40;99.90;;;;;;5070690;28;20044;-66
2023/06/04 01:33:25;;;;;;;0.10;0.10;;;10.30;99.90;;;;;;5037950;28;20041;-66
2023/06/04 01:35:51;;;;;;;0.20;0.20;;;10.20;99.90;;;;;;5038201;28;20463;-66
2023/06/04 01:38:17;;;;;;;0.03;0.03;;;10.20;99.90;;;;;;5042074;28;20036;-66
2023/06/04 01:40:42;;;;;;;0.20;0.20;;;10.10;99.90;;;;;;5073034;28;20033;-66
2023/06/04 01:43:08;;;;;;;0.45;0.30;;;10.00;99.90;;;;;;5044343;28;20041;-66
2023/06/04 01:45:34;;;;;;;0.30;0.22;;;9.90;99.90;;;;;;5039511;28;20049;-66
2023/06/04 01:48:02;;;;;;;0.30;0.30;;;9.80;99.90;;;;;;5041423;28;20540;-66
2023/06/04 01:50:27;;;;;;;0.20;0.20;;;9.80;99.90;;;;;;5059623;28;20045;-66
2023/06/04 01:52:54;;;;;;;0.25;0.25;;;9.70;99.90;;;;;;5073989;28;20384;-66
2023/06/04 01:55:20;;;;;;;0.28;0.10;;;9.60;99.90;;;;;;5043538;28;20068;-66
2023/06/04 01:57:47;;;;;;;0.15;0.15;;;9.60;99.90;;;;;;5075984;28;20138;-66
2023/06/04 02:00:14;;;;;;;0.10;0.10;;;9.60;99.90;;;;;;5043264;28;20040;-66
2023/06/04 02:02:48;;;;;;;0.30;0.30;;;9.60;99.90;;;;;;5036459;28;20037;-66
2023/06/04 02:05:14;;;;;;;0.45;0.45;;;9.60;99.90;;;;;;5039768;28;20099;-66
2023/06/04 02:07:41;;;;;;;0.10;0.00;;;9.60;99.90;;;;;;5042942;28;20094;-66
2023/06/04 02:10:08;;;;;;;0.10;0.10;;;9.60;99.90;;;;;;5044628;28;20183;-66
2023/06/04 02:12:37;;;;;;;0.80;0.45;;;9.60;99.90;;;;;;5035903;28;20149;-66
2023/06/04 02:15:03;;;;;;;0.20;0.10;;;9.60;99.90;;;;;;5034842;28;20059;-66
2023/06/04 02:17:32;;;;;;;0.10;0.10;;;9.60;99.90;;;;;;5037700;28;20045;-66
2023/06/04 02:19:58;;;;;;;0.00;0.00;;;9.60;99.90;;;;;;5071450;28;20131;-66
2023/06/04 02:22:25;;;;;;;0.10;0.10;;;9.60;99.90;;;;;;5036564;28;20059;-66
2023/06/04 02:24:50;;;;;;;0.50;0.50;;;9.50;99.90;;;;;;5037727;28;20033;-66
2023/06/04 02:27:16;;;;;;;0.10;0.10;;;9.60;99.90;;;;;;5067502;28;20037;-66
2023/06/04 02:29:42;;;;;;;0.00;0.00;;;9.60;99.90;;;;;;5074179;28;20084;-66
2023/06/04 02:32:08;;;;;;;0.57;0.17;;;9.60;99.90;;;;;;5039591;28;21413;-66
2023/06/04 02:34:36;;;;;;;0.10;0.10;;;9.60;99.90;;;;;;5038348;28;20455;-66
2023/06/04 02:37:02;;;;;;;0.30;0.30;;;9.60;99.90;;;;;;5043296;28;20079;-66
2023/06/04 02:39:28;;;;;;;0.43;0.32;;;9.60;99.90;;;;;;5040661;28;20116;-66
2023/06/04 02:41:54;;;;;;;0.20;0.20;;;9.60;99.90;;;;;;5069897;28;20439;-65
2023/06/04 02:44:20;;;;;;;0.38;0.15;;;9.60;99.90;;;;;;5042209;28;20044;-66
2023/06/04 02:46:46;;;;;;;0.35;0.10;;;9.60;99.90;;;;;;5036837;28;20051;-65
2023/06/04 02:49:16;;;;;;;0.13;0.10;;;9.60;99.90;;;;;;5074288;28;20029;-65
2023/06/04 02:51:42;;;;;;;0.00;0.00;;;9.60;99.90;;;;;;5037565;28;20044;-65
2023/06/04 02:54:07;;;;;;;0.20;0.20;;;9.60;99.90;;;;;;5068136;28;20033;-65
2023/06/04 02:56:35;;;;;;;0.20;0.10;;;9.60;99.90;;;;;;5080760;28;20040;-65
2023/06/04 02:59:00;;;;;;;0.00;0.00;;;9.60;99.90;;;;;;5044888;28;20503;-67
2023/06/04 03:01:27;;;;;;;0.52;0.15;;;9.60;99.90;;;;;;5072675;28;20289;-66
2023/06/04 03:03:53;;;;;;;0.10;0.10;;;9.60;99.90;;;;;;5045661;28;20048;-66
2023/06/04 03:06:21;;;;;;;0.10;0.10;;;9.60;99.90;;;;;;5068452;28;20459;-66
2023/06/04 03:08:48;;;;;;;0.10;0.10;;;9.60;99.90;;;;;;5043524;28;20476;-66
2023/06/04 03:11:14;;;;;;;0.00;0.00;;;9.60;99.90;;;;;;5034078;28;20032;-66
2023/06/04 03:13:39;;;;;;;0.00;0.00;;;9.60;99.90;;;;;;5039654;28;20056;-66
2023/06/04 03:16:09;;;;;;;0.10;0.10;;;9.60;99.90;;;;;;5046154;28;20037;-66
2023/06/04 03:18:36;;;;;;;0.10;0.10;;;9.60;99.90;;;;;;5044796;28;20067;-66
2023/06/04 03:21:02;;;;;;;0.05;0.05;;;9.60;99.90;;;;;;5076267;28;20377;-66
2023/06/04 03:23:28;;;;;;;0.00;0.00;;;9.60;99.90;;;;;;5079373;28;20075;-66
2023/06/04 03:25:53;;;;;;;3.20;0.15;;;9.50;99.90;;;;;;5062242;28;20044;-66
2023/06/04 03:28:19;;;;;;;0.32;0.32;;;9.50;99.90;;;;;;5042467;28;20061;-66
2023/06/04 03:30:46;;;;;;;0.30;0.30;;;9.50;99.90;;;;;;5040471;28;20055;-66
2023/06/04 03:33:11;;;;;;;0.17;0.15;;;9.50;99.90;;;;;;5045014;28;20115;-66
2023/06/04 03:35:37;;;;;;;0.10;0.10;;;9.50;99.90;;;;;;5040988;28;20049;-67
2023/06/04 03:38:02;;;;;;;0.20;0.20;;;9.50;99.90;;;;;;5044944;28;20533;-66
2023/06/04 03:40:28;;;;;;;0.08;0.08;;;9.60;99.90;;;;;;5046228;28;20534;-66
2023/06/04 03:42:53;;;;;;;0.10;0.10;;;9.60;99.90;;;;;;5042161;28;20447;-66
2023/06/04 03:45:19;;;;;;;0.60;0.55;;;9.60;99.90;;;;;;5042254;28;20482;-66
2023/06/04 03:47:45;;;;;;;0.10;0.10;;;9.60;99.90;;;;;;5037429;28;20137;-67
2023/06/04 03:50:11;;;;;;;0.10;0.10;;;9.70;99.90;;;;;;5072845;28;20036;-66
2023/06/04 03:52:36;;;;;;;0.05;0.05;;;9.80;99.90;;;;;;5042410;28;20033;-66
2023/06/04 03:55:03;;;;;;;0.40;0.40;;;9.80;99.90;;;;;;5046955;28;20102;-66
2023/06/04 03:57:29;;;;;;;0.10;0.10;;;9.80;99.90;;;;;;5043581;28;20095;-66
2023/06/04 03:59:55;;;;;;;0.10;0.10;;;9.90;99.90;;;;;;5047603;28;20499;-66
2023/06/04 04:02:20;;;;;;;0.10;0.10;;;9.90;99.90;;;;;;5040538;28;20606;-66
2023/06/04 04:04:46;;;;;;;0.08;0.08;;;9.90;99.90;;;;;;5045446;28;20045;-66
2023/06/04 04:07:12;;;;;;;0.08;0.08;;;10.00;99.90;;;;;;5045243;28;20551;-66
2023/06/04 04:09:37;;;;;;;0.20;0.20;;;10.00;99.90;;;;;;5040089;28;20087;-65
2023/06/04 04:12:04;;;;;;;0.32;0.32;;;10.10;99.90;;;;;;5044716;28;20554;-65
2023/06/04 04:14:29;;;;;;;0.20;0.20;;;10.10;99.90;;;;;;5040453;28;20073;-65
2023/06/04 04:16:55;;;;;;;0.20;0.20;;;10.00;99.90;;;;;;5040327;28;20110;-65
2023/06/04 04:19:20;;;;;;;0.13;0.13;;;10.10;99.90;;;;;;5041379;28;20041;-65
2023/06/04 04:21:48;;;;;;;0.52;0.10;;;10.00;99.90;;;;;;5040829;28;20041;-66
2023/06/04 04:24:27;;;;;;;0.60;0.28;;;10.10;99.90;;;;;;5037684;28;20041;-65
2023/06/04 04:26:53;;;;;;;0.50;0.35;;;10.10;99.90;;;;;;5040172;28;20033;-66
2023/06/04 04:29:24;;;;;;;0.13;0.13;;;10.10;99.90;;;;;;5060151;28;20048;-66
2023/06/04 04:31:56;;;;;;;0.55;0.22;;;10.20;99.90;;;;;;5040742;28;20033;-66
2023/06/04 04:34:23;;;;;;;0.20;0.20;;;10.20;99.90;;;;;;5036605;28;20116;-66
2023/06/04 04:36:52;;;;;;;0.20;0.10;;;10.30;99.90;;;;;;5040011;28;20041;-66
2023/06/04 04:39:22;;;;;;;0.10;0.10;;;10.30;99.90;;;;;;5042944;28;20091;-66
2023/06/04 04:41:48;;;;;;;2.13;0.20;;;10.40;99.90;;;;;;5047045;28;20208;-66
2023/06/04 04:44:14;;;;;;;1.30;0.60;;;10.40;99.90;;;;;;5043033;28;20051;-67
2023/06/04 04:46:39;;;;;;;0.40;0.40;;;10.50;99.90;;;;;;5047676;28;20131;-66
2023/06/04 04:49:05;;;;;;;0.10;0.10;;;10.60;99.90;;;;;;5045390;28;20510;-66
2023/06/04 04:51:31;;;;;;;0.47;0.38;;;10.70;99.90;;;;;;5052597;28;20504;-67
2023/06/04 04:53:57;;;;;;;0.35;0.30;;;10.70;99.90;;;;;;5049650;28;20051;-66
2023/06/04 04:56:23;;;;;;;0.28;0.28;;;10.80;99.90;;;;;;5050884;28;20192;-66
2023/06/04 04:58:49;;;;;;;0.25;0.25;;;10.90;99.90;;;;;;5083212;28;20052;-66
2023/06/04 05:01:14;;;;;;;0.00;0.00;;;11.00;99.90;;;;;;5044430;28;20097;-66
2023/06/04 05:03:40;;;;;;;0.25;0.25;;;11.10;99.90;;;;;;5042338;28;20048;-66
2023/06/04 05:06:06;;;;;;;0.10;0.10;;;11.20;99.90;;;;;;5032869;28;20513;-66
2023/06/04 05:08:31;;;;;;;0.38;0.17;;;11.30;99.90;;;;;;5042655;28;20044;-67
2023/06/04 05:10:57;;;;;;;0.80;0.25;;;11.40;99.90;;;;;;5078963;28;20037;-66
2023/06/04 05:13:23;;;;;;;0.00;0.00;;;11.50;99.90;;;;;;5048670;28;20041;-66
2023/06/04 05:15:52;;;;;;;0.80;0.80;;;11.60;99.90;;;;;;5045743;28;20437;-66
2023/06/04 05:18:20;;;;;;;0.22;0.20;;;11.70;99.90;;;;;;5050259;28;20504;-67
2023/06/04 05:20:46;;;;;;;0.35;0.35;;;11.90;99.90;;;;;;5045828;28;20084;-66
2023/06/04 05:23:12;;;;;;;0.08;0.08;;;12.00;99.90;;;;;;5056868;28;20029;-66
2023/06/04 05:25:38;;;;;;;0.20;0.20;;;12.10;99.90;;;;;;5039534;28;20079;-67
2023/06/04 05:28:06;;;;;;;0.22;0.22;;;12.20;99.90;;;;;;5043287;28;20495;-67
2023/06/04 05:30:33;;;;;;;0.50;0.50;;;12.30;99.90;;;;;;5078811;28;20041;-67
2023/06/04 05:32:59;;;;;;;0.22;0.20;;;12.40;99.90;;;;;;5043965;28;20106;-67
2023/06/04 05:35:25;;;;;;;0.25;0.25;;;12.50;99.90;;;;;;5051278;28;20041;-66
2023/06/04 05:37:53;;;;;;;0.05;0.05;;;12.60;99.90;;;;;;5047512;28;20047;-66
2023/06/04 05:40:22;;;;;;;5.68;0.52;;;12.70;99.90;;;;;;5083163;28;20115;-67
2023/06/04 05:42:48;;;;;;;0.17;0.17;;;12.90;99.90;;;;;;5047648;28;20434;-67
2023/06/04 05:45:14;;;;;;;3.28;0.20;;;13.00;99.90;;;;;;5080851;28;20079;-66
2023/06/04 05:47:40;;;;;;;0.17;0.17;;;13.10;99.90;;;;;;5042061;28;20423;-66
2023/06/04 05:50:06;;;;;;;0.52;0.25;;;13.20;99.90;;;;;;5044933;28;20104;-66
2023/06/04 05:52:33;;;;;;;0.00;0.00;;;13.30;99.90;;;;;;5041810;28;20478;-67
2023/06/04 05:54:59;;;;;;;0.10;0.10;;;13.40;99.90;;;;;;5039015;28;20104;-66
2023/06/04 05:57:25;;;;;;;0.10;0.10;;;13.50;99.90;;;;;;5076493;28;20112;-67
2023/06/04 05:59:50;;;;;;;0.10;0.10;;;13.50;99.90;;;;;;5046380;28;20037;-67
2023/06/04 06:02:16;;;;;;;0.10;0.10;;;13.60;99.90;;;;;;5061162;28;20113;-66
2023/06/04 06:04:41;;;;;;;0.20;0.20;;;13.70;99.90;;;;;;5048065;28;20087;-66
2023/06/04 06:07:07;;;;;;;0.40;0.25;;;13.70;99.90;;;;;;5035682;28;20045;-67
2023/06/04 06:09:33;;;;;;;0.20;0.20;;;13.80;99.90;;;;;;5044229;28;20033;-67
2023/06/04 06:11:59;;;;;;;0.68;0.40;;;13.80;99.90;;;;;;5045731;28;20071;-67
2023/06/04 06:14:24;;;;;;;0.10;0.10;;;14.00;99.90;;;;;;5046289;28;20078;-67
2023/06/04 06:16:50;;;;;;;0.93;0.30;;;14.10;99.90;;;;;;5039766;28;20091;-67
2023/06/04 06:19:16;;;;;;;1.65;0.63;;;14.20;99.90;;;;;;5063987;28;20034;-67
2023/06/04 06:21:42;;;;;;;0.90;0.90;;;14.30;99.90;;;;;;5032407;28;20041;-67
2023/06/04 06:24:08;;;;;;;0.30;0.30;;;14.40;99.90;;;;;;5082923;28;20050;-68
2023/06/04 06:26:34;;;;;;;0.00;0.00;;;14.50;99.90;;;;;;5042122;28;20496;-66
2023/06/04 06:28:59;;;;;;;0.10;0.10;;;14.60;99.90;;;;;;5045978;28;20040;-66
2023/06/04 06:31:25;;;;;;;0.00;0.00;;;14.70;99.90;;;;;;5047111;28;20431;-68
2023/06/04 06:33:51;;;;;;;0.13;0.13;;;14.90;99.90;;;;;;5046040;28;20052;-67
2023/06/04 06:36:18;;;;;;;0.10;0.10;;;15.00;99.90;;;;;;5042456;28;20033;-67
2023/06/04 06:38:44;;;;;;;0.40;0.40;;;15.10;99.90;;;;;;5047874;28;20049;-67
2023/06/04 06:41:10;;;;;;;0.10;0.10;;;15.10;99.90;;;;;;5038333;28;20593;-66
2023/06/04 06:43:36;;;;;;;0.20;0.10;;;15.30;99.90;;;;;;5045194;28;20044;-66
2023/06/04 06:46:02;;;;;;;0.38;0.38;;;15.40;99.90;;;;;;5047040;28;20037;-66
2023/06/04 06:48:27;;;;;;;0.00;0.00;;;15.50;99.90;;;;;;5046160;28;20112;-67
2023/06/04 06:50:54;;;;;;;0.13;0.13;;;15.50;99.90;;;;;;5080060;28;20047;-67
2023/06/04 06:53:19;;;;;;;0.10;0.10;;;15.60;99.90;;;;;;5045635;28;20045;-67
2023/06/04 06:55:45;;;;;;;0.13;0.13;;;15.70;99.90;;;;;;5046496;28;20428;-67
2023/06/04 06:58:11;;;;;;;0.13;0.10;;;15.80;99.90;;;;;;5046175;28;20049;-67
2023/06/04 07:00:36;;;;;;;0.00;0.00;;;15.90;99.90;;;;;;5040013;28;20041;-67
2023/06/04 07:03:02;;;;;;;0.00;0.00;;;16.00;99.90;;;;;;5035078;28;20037;-66
2023/06/04 07:05:28;;;;;;;0.38;0.10;;;16.10;99.90;;;;;;5038248;28;20048;-66
2023/06/04 07:07:54;;;;;;;1.70;0.43;;;16.20;99.90;;;;;;5032436;28;20575;-66
2023/06/04 07:10:19;;;;;;;0.22;0.20;;;16.30;99.90;;;;;;5073949;28;20166;-68
2023/06/04 07:12:45;;;;;;;1.75;0.17;;;16.40;99.90;;;;;;5028584;28;20045;-67
2023/06/04 07:15:10;;;;;;;0.30;0.30;;;16.40;99.90;;;;;;5035764;28;20047;-66
2023/06/04 07:17:36;;;;;;;0.93;0.65;;;16.50;99.90;;;;;;5055974;28;20037;-67
2023/06/04 07:20:03;;;;;;;0.32;0.32;;;16.50;99.90;;;;;;5036789;28;20547;-66
2023/06/04 07:22:29;;;;;;;0.25;0.25;;;16.60;99.90;;;;;;5037735;28;20129;-67
2023/06/04 07:24:55;;;;;;;0.00;0.00;;;16.60;99.90;;;;;;5041825;28;20076;-66
2023/06/04 07:27:22;;;;;;;0.03;0.03;;;16.70;99.90;;;;;;5036158;28;20119;-66
2023/06/04 07:29:47;;;;;;;5.93;0.75;;;16.80;99.90;;;;;;5068613;28;20656;-67
2023/06/04 07:32:13;;;;;;;0.28;0.28;;;16.90;99.90;;;;;;5038450;28;20032;-67
2023/06/04 07:34:38;;;;;;;0.55;0.20;;;16.90;99.90;;;;;;5072060;28;20045;-67
2023/06/04 07:37:05;;;;;;;0.30;0.20;;;17.10;99.90;;;;;;5038124;28;20370;-67
2023/06/04 07:39:31;;;;;;;0.00;0.00;;;17.10;99.90;;;;;;5038593;28;20045;-67
2023/06/04 07:41:56;;;;;;;0.20;0.20;;;17.20;99.90;;;;;;5036885;28;20051;-66
2023/06/04 07:44:22;;;;;;;0.38;0.38;;;17.30;99.90;;;;;;5042445;28;20044;-67
2023/06/04 07:46:48;;;;;;;0.25;0.25;;;17.40;99.90;;;;;;5041484;28;20571;-67
2023/06/04 07:49:14;;;;;;;0.98;0.40;;;17.40;99.90;;;;;;5040465;28;20033;-67
2023/06/04 07:51:39;;;;;;;0.10;0.10;;;17.50;99.90;;;;;;5043427;28;20431;-66
2023/06/04 07:54:05;;;;;;;0.10;0.10;;;17.60;99.90;;;;;;5042459;28;20049;-68
2023/06/04 07:56:31;;;;;;;0.17;0.17;;;17.70;99.90;;;;;;5030812;28;20045;-67
2023/06/04 07:58:56;;;;;;;0.00;0.00;;;17.80;99.90;;;;;;5040293;28;20102;-67
2023/06/04 08:01:23;;;;;;;0.28;0.28;;;17.90;99.90;;;;;;5040664;28;20088;-66
2023/06/04 08:03:49;;;;;;;0.38;0.38;;;17.90;99.90;;;;;;5033679;28;20128;-67
2023/06/04 08:06:15;;;;;;;0.28;0.28;;;18.00;99.90;;;;;;5033412;28;20043;-67
2023/06/04 08:08:49;;;;;;;0.05;0.05;;;18.10;99.90;;;;;;5031875;28;20037;-67
2023/06/04 08:11:16;;;;;;;0.20;0.20;;;18.20;99.90;;;;;;5070871;28;20037;-67
2023/06/04 08:13:41;;;;;;;0.22;0.22;;;18.20;99.90;;;;;;5036176;28;20671;-67
2023/06/04 08:16:10;;;;;;;0.35;0.35;;;18.30;99.90;;;;;;5042164;28;20112;-67
2023/06/04 08:18:39;;;;;;;0.13;0.13;;;18.40;99.90;;;;;;5034126;28;20135;-66
2023/06/04 08:21:06;;;;;;;0.10;0.10;;;18.50;99.90;;;;;;5038368;28;20037;-67
2023/06/04 08:23:32;;;;;;;0.10;0.10;;;18.60;99.90;;;;;;5039152;28;20124;-66
2023/06/04 08:25:58;;;;;;;0.28;0.28;;;18.70;99.90;;;;;;5040218;28;20049;-67
2023/06/04 08:28:24;;;;;;;0.00;0.00;;;18.80;99.90;;;;;;5041550;28;20048;-67
2023/06/04 08:30:50;;;;;;;0.08;0.08;;;18.80;99.90;;;;;;5082159;28;20040;-67
2023/06/04 08:33:15;;;;;;;0.20;0.20;;;18.80;99.90;;;;;;5047371;28;20040;-67
2023/06/04 08:35:41;;;;;;;0.05;0.05;;;18.90;99.90;;;;;;5078454;28;20033;-69
2023/06/04 08:38:07;;;;;;;0.10;0.10;;;18.90;99.90;;;;;;5046348;28;20071;-67
2023/06/04 08:40:34;;;;;;;1.20;0.22;;;18.90;99.90;;;;;;5049043;28;20498;-67
2023/06/04 08:43:01;;;;;;;0.10;0.10;;;18.90;99.90;;;;;;5039617;28;20581;-67
2023/06/04 08:45:27;;;;;;;0.10;0.10;;;19.00;99.90;;;;;;5073224;28;20042;-67
2023/06/04 08:47:53;;;;;;;0.17;0.17;;;19.10;99.90;;;;;;5039759;28;20521;-67
2023/06/04 08:50:22;;;;;;;0.10;0.10;;;19.30;99.90;;;;;;5043168;28;20040;-67
2023/06/04 08:52:52;;;;;;;0.00;0.00;;;19.40;99.90;;;;;;5039743;28;22221;-66
2023/06/04 08:55:18;;;;;;;0.10;0.10;;;19.50;99.90;;;;;;5040968;28;20049;-67
2023/06/04 08:57:44;;;;;;;0.00;0.00;;;19.60;99.90;;;;;;5032046;28;20515;-67
2023/06/04 09:00:10;;;;;;;3.63;0.45;;;19.70;99.90;;;;;;5076383;28;20036;-68
2023/06/04 09:02:39;;;;;;;0.30;0.30;;;19.70;99.90;;;;;;5035547;28;20188;-67
2023/06/04 09:05:09;;;;;;;0.60;0.40;;;19.80;99.90;;;;;;5040978;28;20057;-67
2023/06/04 09:07:40;;;;;;;0.10;0.10;;;19.90;99.90;;;;;;5039494;28;20116;-68
2023/06/04 09:10:08;;;;;;;0.10;0.10;;;19.90;99.90;;;;;;5076895;28;20044;-68
2023/06/04 09:12:36;;;;;;;0.10;0.10;;;20.00;99.90;;;;;;5037491;28;20037;-66
2023/06/04 09:15:02;;;;;;;0.20;0.20;;;20.00;99.90;;;;;;5038125;28;20059;-66
2023/06/04 09:17:28;;;;;;;0.22;0.00;;;20.00;99.90;;;;;;5042276;28;20036;-66
2023/06/04 09:19:54;;;;;;;0.20;0.20;;;20.00;99.90;;;;;;5041540;28;20045;-65
2023/06/04 09:22:19;;;;;;;0.20;0.20;;;20.10;99.90;;;;;;5046116;28;20036;-69
2023/06/04 09:24:47;;;;;;;0.47;0.20;;;20.00;99.90;;;;;;5042789;28;20433;-68
2023/06/04 09:27:22;;;;;;;0.00;0.00;;;20.00;99.90;;;;;;5051231;28;20365;-67
2023/06/04 09:29:52;;;;;;;0.10;0.10;;;20.10;99.90;;;;;;5039798;28;20043;-66
2023/06/04 09:32:26;;;;;;;0.10;0.10;;;20.20;99.90;;;;;;5031469;28;20072;-67
2023/06/04 09:34:52;;;;;;;0.30;0.10;;;20.30;99.90;;;;;;5049247;28;20080;-67
2023/06/04 09:37:18;;;;;;;0.15;0.15;;;20.30;99.90;;;;;;5049374;28;20044;-66
2023/06/04 09:39:53;;;;;;;0.05;0.05;;;20.30;99.90;;;;;;5040355;28;20065;-67
2023/06/04 09:42:19;;;;;;;0.40;0.40;;;20.20;99.90;;;;;;5072863;28;20106;-67
2023/06/04 09:44:48;;;;;;;0.00;0.00;;;20.20;99.90;;;;;;5049201;28;20408;-67
2023/06/04 09:47:14;;;;;;;0.10;0.10;;;20.20;99.90;;;;;;5047344;28;20200;-66
2023/06/04 09:49:46;;;;;;;0.00;0.00;;;20.30;99.90;;;;;;5074727;28;20043;-67
2023/06/04 09:52:13;;;;;;;0.17;0.17;;;20.40;99.90;;;;;;5083137;28;20044;-67
2023/06/04 09:54:41;;;;;;;0.45;0.10;;;20.40;99.90;;;;;;5044316;28;20413;-67
2023/06/04 09:57:21;;;;;;;0.38;0.20;;;20.30;99.90;;;;;;5045940;28;20056;-65
2023/06/04 09:59:49;;;;;;;0.00;0.00;;;20.30;99.90;;;;;;5044872;28;20037;-66
2023/06/04 10:02:22;;;;;;;0.20;0.20;;;20.20;99.90;;;;;;5044632;28;20063;-66
2023/06/04 10:04:59;;;;;;;0.40;0.17;;;20.10;99.90;;;;;;5082257;28;20041;-67
2023/06/04 10:07:26;;;;;;;0.17;0.10;;;20.00;99.90;;;;;;5037416;28;20496;-66
2023/06/04 10:09:52;;;;;;;0.25;0.10;;;19.90;99.90;;;;;;5042401;28;20033;-66
2023/06/04 10:12:27;;;;;;;0.30;0.30;;;19.90;99.90;;;;;;5044982;28;20055;-66
2023/06/04 10:14:58;;;;;;;2.15;0.52;;;20.00;99.90;;;;;;5082300;28;20049;-66
2023/06/04 10:17:27;;;;;;;0.00;0.00;;;20.00;99.90;;;;;;5046807;28;20049;-66
2023/06/04 10:19:54;;;;;;;1.85;0.50;;;20.10;99.90;;;;;;5045471;28;20045;-66
2023/06/04 10:22:20;;;;;;;2.13;0.30;;;20.10;99.90;;;;;;5060190;28;20041;-67
2023/06/04 10:24:46;;;;;;;0.35;0.35;;;20.20;99.90;;;;;;5047851;28;20094;-66
2023/06/04 10:27:12;;;;;;;0.17;0.17;;;20.30;99.90;;;;;;5044807;28;20444;-67
2023/06/04 10:29:39;;;;;;;0.10;0.10;;;20.40;99.90;;;;;;5043634;28;20083;-67
2023/06/04 10:32:05;;;;;;;0.20;0.20;;;20.40;99.90;;;;;;5044656;28;20391;-67
2023/06/04 10:34:31;;;;;;;0.00;0.00;;;20.50;99.90;;;;;;5038831;28;20158;-66
2023/06/04 10:36:57;;;;;;;0.15;0.15;;;20.60;99.90;;;;;;5075064;28;20048;-67
2023/06/04 10:39:28;;;;;;;0.10;0.10;;;20.70;99.90;;;;;;5072491;28;21575;-66
2023/06/04 10:42:05;;;;;;;0.88;0.20;;;20.70;99.90;;;;;;5078757;28;20128;-67
2023/06/04 10:44:32;;;;;;;0.10;0.10;;;20.70;99.90;;;;;;5047762;28;20143;-67
2023/06/04 10:46:58;;;;;;;0.77;0.20;;;20.60;99.90;;;;;;5084226;28;20048;-67
2023/06/04 10:49:28;;;;;;;0.00;0.00;;;20.70;99.90;;;;;;5045138;28;20119;-65
2023/06/04 10:51:56;;;;;;;0.10;0.10;;;20.80;99.90;;;;;;5018569;28;20346;-66
2023/06/04 10:54:25;;;;;;;0.35;0.32;;;20.80;99.90;;;;;;5048613;28;20100;-67
2023/06/04 10:56:52;;;;;;;0.10;0.10;;;20.70;99.90;;;;;;5049895;28;20044;-67
2023/06/04 10:59:18;;;;;;;0.10;0.10;;;20.80;99.90;;;;;;5049105;28;20499;-67
2023/06/04 11:01:44;;;;;;;0.10;0.10;;;20.90;99.90;;;;;;5067953;28;20385;-66
2023/06/04 11:04:23;;;;;;;0.38;0.38;;;21.00;99.90;;;;;;5040517;28;20111;-67
2023/06/04 11:07:01;;;;;;;0.17;0.17;;;20.90;99.90;;;;;;5047175;28;20511;-65
2023/06/04 11:09:27;;;;;;;1.08;0.20;;;20.90;99.90;;;;;;5081930;28;20075;-65
2023/06/04 11:11:59;;;;;;;0.22;0.22;;;20.80;99.90;;;;;;5046879;28;20049;-66
2023/06/04 11:14:25;;;;;;;0.65;0.65;;;20.80;99.90;;;;;;5048083;28;20077;-67
2023/06/04 11:16:51;;;;;;;0.10;0.10;;;20.80;99.60;;;;;;5047319;28;20072;-66
2023/06/04 11:19:17;;;;;;;0.40;0.40;;;20.70;98.90;;;;;;5047850;28;20059;-66
2023/06/04 11:21:44;;;;;;;0.00;0.00;;;20.70;99.50;;;;;;5075474;28;20116;-68
2023/06/04 11:24:12;;;;;;;0.10;0.10;;;20.80;99.90;;;;;;5030043;28;20079;-66
2023/06/04 11:26:38;;;;;;;0.10;0.10;;;20.80;99.90;;;;;;5041499;28;20484;-65
2023/06/04 11:29:11;;;;;;;0.75;0.38;;;20.80;98.20;;;;;;5047796;28;20040;-67
2023/06/04 11:31:45;;;;;;;0.20;0.20;;;20.60;99.20;;;;;;5079838;28;20068;-66
2023/06/04 11:34:21;;;;;;;0.10;0.10;;;20.70;99.90;;;;;;5046479;28;20038;-66
2023/06/04 11:36:49;;;;;;;0.03;0.03;;;20.80;99.90;;;;;;5044406;28;20213;-67
2023/06/04 11:39:15;;;;;;;0.10;0.10;;;20.90;99.90;;;;;;5023455;28;20443;-67
2023/06/04 11:41:42;;;;;;;0.20;0.20;;;21.00;99.90;;;;;;5045310;28;20041;-68
2023/06/04 11:44:08;;;;;;;0.10;0.10;;;20.90;99.00;;;;;;5042562;28;20048;-67
2023/06/04 11:46:35;;;;;;;0.00;0.00;;;21.00;99.20;;;;;;5047584;28;20045;-66
2023/06/04 11:49:02;;;;;;;0.00;0.00;;;21.00;99.70;;;;;;5045271;28;20037;-67
2023/06/04 11:51:28;;;;;;;0.30;0.30;;;21.10;97.70;;;;;;5048131;28;20037;-67
2023/06/04 11:53:55;;;;;;;0.93;0.28;;;21.00;99.00;;;;;;5047540;28;20123;-66
2023/06/04 11:56:21;;;;;;;0.03;0.03;;;20.90;99.60;;;;;;5045036;28;20155;-68
2023/06/04 11:58:46;;;;;;;0.00;0.00;;;20.90;99.80;;;;;;5044165;28;20403;-68
2023/06/04 12:01:13;;;;;;;0.20;0.20;;;20.90;99.90;;;;;;5047175;28;20056;-66
2023/06/04 12:03:42;;;;;;;0.28;0.20;;;21.00;99.90;;;;;;5045613;28;20124;-66
2023/06/04 12:06:19;;;;;;;0.10;0.10;;;21.20;99.90;;;;;;5076706;28;20041;-67
2023/06/04 12:08:51;;;;;;;0.10;0.10;;;21.30;99.90;;;;;;5044692;28;20067;-67
2023/06/04 12:11:29;;;;;;;0.10;0.10;;;21.30;99.90;;;;;;5046171;28;20059;-66
2023/06/04 12:14:05;;;;;;;2.17;0.20;;;21.40;99.60;;;;;;5048086;28;20033;-66
2023/06/04 12:16:31;;;;;;;0.20;0.20;;;21.40;99.00;;;;;;5045016;28;20164;-66
2023/06/04 12:19:11;;;;;;;0.00;0.00;;;21.40;98.70;;;;;;5047292;28;20079;-68
2023/06/04 12:21:38;;;;;;;1.27;0.30;;;21.30;98.10;;;;;;5038377;28;20067;-66
2023/06/04 12:24:08;;;;;;;0.28;0.10;;;21.30;98.30;;;;;;5041931;28;20040;-67
2023/06/04 12:26:37;;;;;;;0.00;0.00;;;21.20;98.70;;;;;;5070102;28;20377;-68
2023/06/04 12:29:10;;;;;;;0.10;0.10;;;21.20;98.80;;;;;;5041640;28;20506;-67
2023/06/04 12:31:46;;;;;;;0.30;0.30;;;21.30;97.30;;;;;;5048143;28;20076;-66
2023/06/04 12:34:14;;;;;;;1.25;0.50;;;21.10;97.10;;;;;;5046595;28;20112;-66
2023/06/04 12:36:40;;;;;;;0.40;0.40;;;21.00;96.80;;;;;;5047762;28;20041;-67
2023/06/04 12:39:06;;;;;;;0.47;0.45;;;20.90;97.60;;;;;;5046511;28;20057;-66
2023/06/04 12:41:36;;;;;;;0.28;0.28;;;20.90;98.60;;;;;;5077923;28;20041;-67
2023/06/04 12:44:01;;;;;;;0.70;0.30;;;21.00;98.20;;;;;;5045117;28;20503;-66
2023/06/04 12:46:27;;;;;;;0.13;0.10;;;21.00;97.00;;;;;;5044021;28;20053;-66
2023/06/04 12:48:54;;;;;;;1.40;0.55;;;21.00;98.80;;;;;;5040798;28;20496;-66